ePrivacy and GPDR Cookie Consent by Cookie Consent
EmailTwitter


Surface observations / Quebec / CYUL (71627)

Regions: Quebec | Canada | USA | Europe | France | UK | Elsewhere
Station
Display
Info & Location for CYUL (71627) | Help decoding METAR

Weather Conditions observed on 2021/05/08 at 04:00 UTC at MONTREAL INTL A, QB (CYUL)

Sky conditions: partly cloudy.

Temperature: 11.0 Celsius.

Dewpoint: -1.0 Celsius.

Relative Humidity: 43%

Winds: Northeast at 19 km/h or 10 knots.

Mean Sea level Pressure: 101.17 kilopascals.

Altimeter Setting (QNH): 101.15 kilopascals or 29.87 inches of mercury.

Horizontal visibility: 15.00 statute miles or 24.00 kilometers.

Height of the Ceiling: 3353 metres ( 11000 feet ).

Coded METAR:

CYUL 080400Z 04010KT 15SM SCT085 BKN110 11/M01 A2987 RMK AC3AC2 SLP117=